Time;durP1;ratioP1;P1;durP2;ratioP2;P2;SDS_P1;SDS_P2;PMS_P1;PMS_P2;Temp;Humidity;BMP_temperature;BMP_pressure;BME280_temperature;BME280_humidity;BME280_pressure;Samples;Min_cycle;Max_cycle;Signal;HPM_P1;HPM_P2
2022/07/12 00:01:36;;;;;;;3.60;3.30;;;15.30;99.90;;;;;;4991673;28;20213;-76
2022/07/12 00:04:02;;;;;;;3.70;3.40;;;15.10;99.90;;;;;;4991821;28;20825;-75
2022/07/12 00:06:28;;;;;;;4.10;3.80;;;15.00;99.90;;;;;;4991390;28;20223;-75
2022/07/12 00:08:53;;;;;;;4.80;4.30;;;15.10;99.90;;;;;;5009126;28;20188;-75
2022/07/12 00:11:19;;;;;;;4.23;3.80;;;14.90;99.90;;;;;;5009128;28;20286;-75
2022/07/12 00:13:45;;;;;;;4.00;3.70;;;14.90;99.90;;;;;;5009181;28;20179;-75
2022/07/12 00:16:11;;;;;;;5.60;3.60;;;14.90;99.90;;;;;;5009080;28;20493;-75
2022/07/12 00:18:36;;;;;;;4.13;3.73;;;14.80;99.90;;;;;;4991473;28;20203;-75
2022/07/12 00:21:02;;;;;;;3.83;3.53;;;14.70;99.90;;;;;;4991479;28;20962;-75
2022/07/12 00:23:28;;;;;;;3.70;3.40;;;14.60;99.90;;;;;;4992197;28;20194;-76
2022/07/12 00:25:53;;;;;;;3.83;3.47;;;14.60;99.90;;;;;;4974914;28;20222;-76
2022/07/12 00:28:19;;;;;;;4.07;3.60;;;14.70;99.90;;;;;;5009059;28;20187;-76
2022/07/12 00:30:45;;;;;;;4.70;4.00;;;14.80;99.90;;;;;;4991310;28;20272;-76
2022/07/12 00:33:10;;;;;;;4.23;3.83;;;14.90;99.90;;;;;;5008881;28;20428;-76
2022/07/12 00:35:36;;;;;;;4.47;4.17;;;14.90;99.90;;;;;;4991131;28;20586;-76
2022/07/12 00:38:02;;;;;;;4.47;3.60;;;14.90;99.90;;;;;;5008747;28;20181;-75
2022/07/12 00:40:28;;;;;;;5.27;3.60;;;14.80;99.90;;;;;;4990838;28;20263;-76
2022/07/12 00:42:53;;;;;;;4.50;3.90;;;14.70;99.90;;;;;;5008790;28;20194;-76
2022/07/12 00:45:19;;;;;;;4.60;3.70;;;14.70;99.90;;;;;;5008691;28;20424;-76
2022/07/12 00:47:46;;;;;;;4.40;4.00;;;14.70;99.90;;;;;;5009073;28;20214;-76
2022/07/12 00:50:20;;;;;;;5.43;4.10;;;14.70;99.90;;;;;;5008740;28;20190;-76
2022/07/12 00:52:48;;;;;;;4.17;3.77;;;14.60;99.90;;;;;;5008590;28;20416;-76
2022/07/12 00:55:14;;;;;;;5.20;3.20;;;14.60;99.90;;;;;;5012599;28;20428;-76
2022/07/12 00:57:43;;;;;;;5.70;3.80;;;14.70;99.90;;;;;;4995659;28;20466;-76
2022/07/12 01:00:10;;;;;;;7.17;4.00;;;14.70;99.90;;;;;;5013343;28;20508;-76
2022/07/12 01:02:37;;;;;;;5.40;3.87;;;14.70;99.90;;;;;;5014363;28;20523;-77
2022/07/12 01:05:07;;;;;;;4.20;3.80;;;14.70;99.90;;;;;;5015085;28;20482;-76
2022/07/12 01:07:34;;;;;;;3.97;3.67;;;14.70;99.90;;;;;;5014410;28;20504;-77
2022/07/12 01:10:01;;;;;;;3.67;3.33;;;14.60;99.90;;;;;;4997566;28;20435;-77
2022/07/12 01:12:27;;;;;;;5.77;3.90;;;14.60;99.90;;;;;;5015400;28;20423;-76
2022/07/12 01:14:53;;;;;;;5.60;3.50;;;14.60;99.90;;;;;;4996552;28;20427;-77
2022/07/12 01:17:24;;;;;;;4.07;3.77;;;14.50;99.90;;;;;;4995885;28;20545;-76
2022/07/12 01:19:55;;;;;;;4.40;4.00;;;14.50;99.90;;;;;;4996261;28;20956;-76
2022/07/12 01:22:31;;;;;;;4.97;4.33;;;14.50;99.90;;;;;;5014018;28;20494;-77
2022/07/12 01:24:57;;;;;;;6.80;4.60;;;14.40;99.90;;;;;;5014010;28;20424;-77
2022/07/12 01:27:23;;;;;;;6.40;5.17;;;14.40;99.90;;;;;;4979039;28;20842;-74
2022/07/12 01:29:49;;;;;;;4.80;4.30;;;14.40;99.90;;;;;;5012925;28;20424;-74
2022/07/12 01:32:24;;;;;;;5.03;4.30;;;14.40;99.90;;;;;;5012492;28;20411;-75
2022/07/12 01:35:00;;;;;;;5.37;4.87;;;14.40;99.90;;;;;;5012526;28;20189;-75
2022/07/12 01:37:37;;;;;;;4.77;4.33;;;14.40;99.90;;;;;;5012252;28;20477;-74
2022/07/12 01:40:05;;;;;;;6.40;4.53;;;14.40;99.90;;;;;;5012348;28;20498;-74
2022/07/12 01:42:31;;;;;;;4.37;3.97;;;14.30;99.90;;;;;;5012455;28;20428;-74
2022/07/12 01:44:58;;;;;;;4.43;3.90;;;14.10;99.90;;;;;;5012396;28;20424;-75
2022/07/12 01:47:26;;;;;;;4.80;4.00;;;14.10;99.90;;;;;;5012054;28;20471;-74
2022/07/12 01:49:53;;;;;;;6.23;5.10;;;14.10;99.90;;;;;;5012674;28;20808;-75
2022/07/12 01:52:19;;;;;;;4.10;3.80;;;13.90;99.90;;;;;;5012668;28;20422;-75
2022/07/12 01:54:45;;;;;;;4.37;4.07;;;13.70;99.90;;;;;;5012756;28;20480;-75
2022/07/12 01:57:11;;;;;;;4.60;4.13;;;13.80;99.90;;;;;;5012551;28;20497;-75
2022/07/12 01:59:40;;;;;;;4.33;3.93;;;13.80;99.90;;;;;;5012634;28;20429;-74
2022/07/12 02:02:05;;;;;;;5.50;3.93;;;13.90;99.90;;;;;;5012736;28;20458;-74
2022/07/12 02:04:31;;;;;;;5.17;4.60;;;13.70;99.90;;;;;;5012319;28;20417;-74
2022/07/12 02:06:57;;;;;;;4.10;3.80;;;13.70;99.90;;;;;;5012290;28;20869;-75
2022/07/12 02:09:23;;;;;;;7.43;4.87;;;13.60;99.90;;;;;;4994710;28;20197;-74
2022/07/12 02:11:49;;;;;;;5.47;4.93;;;13.30;99.90;;;;;;4994825;28;20189;-74
2022/07/12 02:14:16;;;;;;;6.20;5.37;;;13.10;99.90;;;;;;5012158;28;20420;-74
2022/07/12 02:16:43;;;;;;;6.47;5.13;;;13.10;99.90;;;;;;5012087;28;20444;-74
2022/07/12 02:19:10;;;;;;;5.43;4.90;;;13.10;99.90;;;;;;5012207;28;20446;-74
2022/07/12 02:21:36;;;;;;;5.97;5.47;;;13.20;99.90;;;;;;5012388;28;20420;-76
2022/07/12 02:24:02;;;;;;;5.23;4.73;;;13.40;99.90;;;;;;5013358;28;20424;-76
2022/07/12 02:26:28;;;;;;;4.97;4.50;;;13.40;99.90;;;;;;5012137;28;20526;-76
2022/07/12 02:28:54;;;;;;;10.03;4.57;;;13.40;99.90;;;;;;5012790;28;20498;-77
2022/07/12 02:31:20;;;;;;;7.10;4.43;;;13.50;99.90;;;;;;4994629;28;21021;-77
2022/07/12 02:33:45;;;;;;;7.17;4.10;;;13.70;99.90;;;;;;4994371;28;20604;-76
2022/07/12 02:36:11;;;;;;;5.17;4.23;;;13.60;99.90;;;;;;4996398;28;20295;-76
2022/07/12 02:38:37;;;;;;;4.87;4.27;;;13.70;99.90;;;;;;5011177;28;20189;-76
2022/07/12 02:41:02;;;;;;;7.30;4.60;;;13.70;99.90;;;;;;5011145;28;20574;-75
2022/07/12 02:43:32;;;;;;;5.43;4.27;;;13.50;99.90;;;;;;4993443;28;20947;-75
2022/07/12 02:46:05;;;;;;;7.83;4.83;;;13.40;99.90;;;;;;5010645;28;20260;-75
2022/07/12 02:48:31;;;;;;;4.30;3.90;;;13.40;99.90;;;;;;5011427;28;21089;-77
2022/07/12 02:50:56;;;;;;;4.80;4.40;;;13.50;99.90;;;;;;5011765;28;20420;-77
2022/07/12 02:53:22;;;;;;;4.77;4.30;;;13.50;99.90;;;;;;4994061;28;20428;-75
2022/07/12 02:55:48;;;;;;;5.97;4.53;;;13.60;99.90;;;;;;4977622;28;20208;-76
2022/07/12 02:58:14;;;;;;;5.60;5.00;;;13.70;99.90;;;;;;4993758;28;20909;-76
2022/07/12 03:00:41;;;;;;;5.30;4.23;;;13.70;99.90;;;;;;5011328;28;20413;-76
2022/07/12 03:03:07;;;;;;;8.30;4.67;;;13.70;99.90;;;;;;5011302;28;20425;-76
2022/07/12 03:05:36;;;;;;;5.20;4.43;;;13.70;99.90;;;;;;5011051;28;20443;-75
2022/07/12 03:08:06;;;;;;;4.40;4.00;;;13.60;99.90;;;;;;5011121;28;20449;-75
2022/07/12 03:10:32;;;;;;;5.23;4.53;;;13.60;99.90;;;;;;5011070;28;20411;-74
2022/07/12 03:12:57;;;;;;;4.50;4.10;;;13.60;99.90;;;;;;4993499;28;20463;-74
2022/07/12 03:15:23;;;;;;;4.87;4.47;;;13.70;99.90;;;;;;5010982;28;20412;-74
2022/07/12 03:17:49;;;;;;;5.10;4.60;;;13.60;99.90;;;;;;5009910;28;20208;-74
2022/07/12 03:20:14;;;;;;;5.03;4.53;;;13.60;99.90;;;;;;5010619;28;20181;-74
2022/07/12 03:22:41;;;;;;;5.30;4.70;;;13.60;99.90;;;;;;5010367;28;20643;-74
2022/07/12 03:25:07;;;;;;;4.50;4.10;;;13.70;99.90;;;;;;5010419;28;20204;-74
2022/07/12 03:27:33;;;;;;;5.23;4.73;;;13.70;99.90;;;;;;5010130;28;20471;-74
2022/07/12 03:29:59;;;;;;;6.63;4.27;;;13.60;99.90;;;;;;5010257;28;20502;-75
2022/07/12 03:32:25;;;;;;;7.07;4.53;;;13.70;99.90;;;;;;4992954;28;20853;-74
2022/07/12 03:34:51;;;;;;;5.73;4.93;;;13.70;99.90;;;;;;5010244;28;20421;-74
2022/07/12 03:37:16;;;;;;;5.70;4.10;;;13.70;99.90;;;;;;4992292;28;21304;-74
2022/07/12 03:39:42;;;;;;;6.67;4.70;;;13.60;99.90;;;;;;5009898;28;20202;-74
2022/07/12 03:42:08;;;;;;;4.37;3.93;;;13.60;99.90;;;;;;5010198;28;20653;-75
2022/07/12 03:44:33;;;;;;;5.70;4.33;;;13.70;99.90;;;;;;5010158;28;20726;-75
2022/07/12 03:46:59;;;;;;;4.50;4.10;;;13.70;99.90;;;;;;4992026;28;20750;-74
2022/07/12 03:49:25;;;;;;;4.70;4.30;;;13.70;99.90;;;;;;5009858;28;20177;-75
2022/07/12 03:51:51;;;;;;;4.80;3.90;;;13.70;99.90;;;;;;5009850;28;20181;-75
2022/07/12 03:54:16;;;;;;;8.40;4.50;;;13.70;99.90;;;;;;5009802;28;20412;-75
2022/07/12 03:59:27;;;;;;;5.80;4.33;;;13.80;99.90;;;;;;5009920;28;20212;-75
2022/07/12 04:01:52;;;;;;;6.07;5.00;;;13.80;99.90;;;;;;4992057;28;20429;-75
2022/07/12 04:04:18;;;;;;;5.63;4.67;;;13.80;99.90;;;;;;4991767;28;20511;-75
2022/07/12 04:06:44;;;;;;;5.47;4.90;;;13.80;99.90;;;;;;4991594;28;20227;-74
2022/07/12 04:09:09;;;;;;;4.60;4.20;;;13.80;99.90;;;;;;5009731;28;20173;-74
2022/07/12 04:11:35;;;;;;;5.57;4.20;;;13.90;99.90;;;;;;5009688;28;20266;-74
2022/07/12 04:14:01;;;;;;;6.40;4.67;;;14.00;99.90;;;;;;4991915;28;20227;-74
2022/07/12 04:16:27;;;;;;;5.07;4.60;;;14.00;99.90;;;;;;5009879;28;20201;-75
2022/07/12 04:18:53;;;;;;;4.50;4.10;;;14.10;99.90;;;;;;5009732;28;20280;-75
2022/07/12 04:21:19;;;;;;;5.50;3.73;;;14.20;99.90;;;;;;5009771;28;20488;-74
2022/07/12 04:23:45;;;;;;;4.67;4.27;;;14.30;99.90;;;;;;4991891;28;20929;-75
2022/07/12 04:26:11;;;;;;;7.70;4.23;;;14.30;99.90;;;;;;5009668;28;20264;-74
2022/07/12 04:28:37;;;;;;;7.33;5.00;;;14.40;99.90;;;;;;5012450;28;20197;-74
2022/07/12 04:31:02;;;;;;;5.30;4.50;;;14.40;99.90;;;;;;5011285;28;20435;-75
2022/07/12 04:33:28;;;;;;;4.87;4.47;;;14.40;99.90;;;;;;5010617;28;20424;-75
2022/07/12 04:35:54;;;;;;;7.33;5.20;;;14.40;99.90;;;;;;4991737;28;20635;-75
2022/07/12 04:38:20;;;;;;;5.60;5.10;;;14.50;99.90;;;;;;4991724;28;20501;-75
2022/07/12 04:40:46;;;;;;;5.70;5.07;;;14.50;99.90;;;;;;5009012;28;20205;-75
2022/07/12 04:43:11;;;;;;;6.83;4.93;;;14.60;99.90;;;;;;5008849;28;20464;-75
2022/07/12 04:45:37;;;;;;;8.13;5.77;;;14.60;99.90;;;;;;4990813;28;20501;-75
2022/07/12 04:48:03;;;;;;;6.93;4.97;;;14.70;99.90;;;;;;4990902;28;20775;-75
2022/07/12 04:50:29;;;;;;;6.10;5.40;;;14.80;99.90;;;;;;5008671;28;20527;-75
2022/07/12 04:52:54;;;;;;;7.63;5.30;;;14.90;99.90;;;;;;5009054;28;20731;-75
2022/07/12 04:55:20;;;;;;;6.93;5.97;;;15.10;99.90;;;;;;4990931;28;20197;-75
2022/07/12 04:57:45;;;;;;;6.53;5.10;;;15.00;99.90;;;;;;5008715;28;20211;-75
2022/07/12 05:00:11;;;;;;;5.30;4.83;;;15.00;99.90;;;;;;5008242;28;20578;-75
2022/07/12 05:02:37;;;;;;;5.17;4.67;;;15.10;99.90;;;;;;4974592;28;20201;-75
2022/07/12 05:05:03;;;;;;;8.50;5.90;;;15.20;99.90;;;;;;4974000;28;20428;-74
2022/07/12 05:07:29;;;;;;;6.90;5.73;;;15.30;99.90;;;;;;4989971;28;20229;-75
2022/07/12 05:09:54;;;;;;;8.13;5.23;;;15.30;99.90;;;;;;4973662;28;20440;-75
2022/07/12 05:12:20;;;;;;;7.90;4.63;;;15.40;99.90;;;;;;5007626;28;20186;-75
2022/07/12 05:14:46;;;;;;;10.73;5.03;;;15.40;99.90;;;;;;5007524;28;20560;-74
2022/07/12 05:17:12;;;;;;;7.40;5.00;;;15.40;99.90;;;;;;5007282;28;20217;-75
2022/07/12 05:19:38;;;;;;;5.80;5.20;;;15.50;99.90;;;;;;5007316;28;20190;-74
2022/07/12 05:22:04;;;;;;;8.60;5.33;;;15.50;99.90;;;;;;5007163;28;20469;-74
2022/07/12 05:24:30;;;;;;;8.00;5.20;;;15.60;99.90;;;;;;5007107;28;20457;-75
2022/07/12 05:26:56;;;;;;;6.47;5.43;;;15.60;99.90;;;;;;4972773;28;20480;-75
2022/07/12 05:29:22;;;;;;;6.47;5.30;;;15.80;99.90;;;;;;5006953;28;20183;-74
2022/07/12 05:31:47;;;;;;;6.60;5.37;;;15.90;99.90;;;;;;5007019;28;20867;-75
2022/07/12 05:34:13;;;;;;;6.13;4.90;;;16.00;99.90;;;;;;5006770;28;20191;-74
2022/07/12 05:36:39;;;;;;;6.00;4.70;;;16.10;99.90;;;;;;5006701;28;20236;-75
2022/07/12 05:39:05;;;;;;;7.07;5.37;;;16.20;99.90;;;;;;5006889;28;20832;-74
2022/07/12 05:41:31;;;;;;;10.03;5.00;;;16.20;99.90;;;;;;5010317;28;20749;-74
2022/07/12 05:43:57;;;;;;;6.90;6.20;;;16.30;99.90;;;;;;4992496;28;20540;-74
2022/07/12 05:46:22;;;;;;;6.23;5.63;;;16.50;99.90;;;;;;4992393;28;20239;-75
2022/07/12 05:48:48;;;;;;;6.77;5.63;;;16.50;99.90;;;;;;5010425;28;20190;-74
2022/07/12 05:53:58;;;;;;;8.60;5.83;;;16.60;99.90;;;;;;5010187;28;20265;-74
2022/07/12 05:56:23;;;;;;;7.20;6.23;;;16.70;99.90;;;;;;4992199;28;21055;-74
2022/07/12 05:58:50;;;;;;;7.60;6.10;;;16.80;99.90;;;;;;5010272;28;20246;-74
2022/07/12 06:01:16;;;;;;;6.83;4.93;;;16.90;99.90;;;;;;5010262;28;20195;-74
2022/07/12 06:03:42;;;;;;;9.27;6.30;;;17.10;99.90;;;;;;5010111;28;20434;-75
2022/07/12 06:06:08;;;;;;;9.40;6.47;;;17.20;99.90;;;;;;5009842;28;20487;-74
2022/07/12 06:08:34;;;;;;;6.27;5.53;;;17.30;99.90;;;;;;5009878;28;20440;-74
2022/07/12 06:10:59;;;;;;;8.50;6.20;;;17.30;99.90;;;;;;5010099;28;20514;-74
2022/07/12 06:13:25;;;;;;;5.90;5.30;;;17.40;99.90;;;;;;4975832;28;20199;-74
2022/07/12 06:15:51;;;;;;;5.43;4.83;;;17.50;99.90;;;;;;4975664;28;20570;-74
2022/07/12 06:18:17;;;;;;;7.07;5.17;;;17.60;99.90;;;;;;4975644;28;20189;-74
2022/07/12 06:20:43;;;;;;;4.90;4.50;;;17.60;99.90;;;;;;4991912;28;20181;-74
2022/07/12 06:23:08;;;;;;;6.47;5.10;;;17.80;99.90;;;;;;4975690;28;20932;-74
2022/07/12 06:25:34;;;;;;;6.57;5.33;;;17.90;99.90;;;;;;4975664;28;20211;-74
2022/07/12 06:28:01;;;;;;;4.23;3.93;;;18.10;99.90;;;;;;5009827;28;20215;-74
2022/07/12 06:30:26;;;;;;;11.60;5.40;;;18.20;99.90;;;;;;5009602;28;21079;-74
2022/07/12 06:32:52;;;;;;;5.00;4.30;;;18.20;99.90;;;;;;4991758;28;20431;-74
2022/07/12 06:35:18;;;;;;;4.47;4.17;;;18.30;99.90;;;;;;4991753;28;20187;-74
2022/07/12 06:37:44;;;;;;;5.17;4.67;;;18.20;99.90;;;;;;4993110;28;20196;-74
2022/07/12 06:40:11;;;;;;;5.37;3.93;;;18.20;99.90;;;;;;5009305;28;20686;-74
2022/07/12 06:42:36;;;;;;;4.90;4.40;;;18.20;99.90;;;;;;4991575;28;20442;-75
2022/07/12 06:45:03;;;;;;;4.77;3.93;;;18.20;99.90;;;;;;5009238;28;20424;-75
2022/07/12 06:47:29;;;;;;;7.70;4.10;;;18.20;99.90;;;;;;5009156;28;20223;-75
2022/07/12 06:49:54;;;;;;;7.63;4.93;;;18.20;99.90;;;;;;4991320;28;20443;-74
2022/07/12 06:52:20;;;;;;;5.40;4.90;;;18.30;99.90;;;;;;5008191;28;20207;-74
2022/07/12 06:54:46;;;;;;;5.73;4.37;;;18.30;99.90;;;;;;4991732;28;20189;-74
2022/07/12 06:57:12;;;;;;;4.80;4.40;;;18.30;99.90;;;;;;5009530;28;20244;-74
2022/07/12 06:59:37;;;;;;;5.83;4.17;;;18.40;99.90;;;;;;5010015;28;20194;-74
2022/07/12 07:02:04;;;;;;;4.90;4.23;;;18.40;99.90;;;;;;4992199;28;20196;-74
2022/07/12 07:04:29;;;;;;;4.40;4.00;;;18.60;99.90;;;;;;4993485;28;20189;-74
2022/07/12 07:06:55;;;;;;;6.40;4.67;;;18.80;99.90;;;;;;5010887;28;20479;-76
2022/07/12 07:09:21;;;;;;;6.63;4.53;;;18.90;99.90;;;;;;4992936;28;20211;-76
2022/07/12 07:11:46;;;;;;;4.40;4.00;;;19.20;99.90;;;;;;5011577;28;20562;-76
2022/07/12 07:14:12;;;;;;;4.40;4.00;;;19.20;99.90;;;;;;5011377;28;20202;-76
2022/07/12 07:16:37;;;;;;;3.83;3.43;;;19.20;99.90;;;;;;5010895;28;20209;-76
2022/07/12 07:19:03;;;;;;;8.70;4.93;;;19.20;99.90;;;;;;4991800;28;20212;-76
2022/07/12 07:21:29;;;;;;;3.27;2.90;;;19.30;99.90;;;;;;5009663;28;20940;-76
2022/07/12 07:23:55;;;;;;;4.03;3.63;;;19.40;99.90;;;;;;4991428;28;20188;-76
2022/07/12 07:26:21;;;;;;;3.63;3.30;;;19.40;99.90;;;;;;4991096;28;20541;-76
2022/07/12 07:31:41;;;;;;;4.30;3.90;;;19.50;99.90;;;;;;5008940;28;21004;-76
2022/07/12 07:34:07;;;;;;;4.30;3.47;;;19.50;99.90;;;;;;4990661;28;21261;-76
2022/07/12 07:36:32;;;;;;;4.10;3.70;;;19.60;99.90;;;;;;5008478;28;20452;-76
2022/07/12 07:38:58;;;;;;;8.20;3.57;;;19.70;99.90;;;;;;4974562;28;20208;-76
2022/07/12 07:41:24;;;;;;;3.30;3.00;;;19.70;99.90;;;;;;5009428;28;20247;-76
2022/07/12 07:43:50;;;;;;;3.67;3.20;;;19.70;99.90;;;;;;5008857;28;20952;-76
2022/07/12 07:46:16;;;;;;;6.23;3.67;;;19.90;99.90;;;;;;4991050;28;20510;-76
2022/07/12 07:48:42;;;;;;;3.43;2.83;;;20.10;99.90;;;;;;4990987;28;20458;-76
2022/07/12 07:51:08;;;;;;;3.90;2.80;;;20.10;99.90;;;;;;4990902;28;20435;-76
2022/07/12 07:53:33;;;;;;;3.40;2.40;;;20.20;99.90;;;;;;5008807;28;20181;-76
2022/07/12 07:55:59;;;;;;;3.27;2.97;;;20.30;99.90;;;;;;4990884;28;20811;-76
2022/07/12 07:58:25;;;;;;;3.27;2.30;;;20.40;99.90;;;;;;4990914;28;20356;-76
2022/07/12 08:00:52;;;;;;;1.93;1.83;;;20.60;99.90;;;;;;4990854;28;20518;-76
2022/07/12 08:03:21;;;;;;;2.80;2.60;;;20.70;99.90;;;;;;5008059;28;20189;-76
2022/07/12 08:05:48;;;;;;;2.00;1.90;;;20.80;99.90;;;;;;5008262;28;20443;-76
2022/07/12 08:08:14;;;;;;;2.57;2.40;;;20.90;99.90;;;;;;4990423;28;20436;-76
2022/07/12 08:10:39;;;;;;;4.23;2.00;;;20.90;99.90;;;;;;5007893;28;20476;-76
2022/07/12 08:13:05;;;;;;;2.10;2.00;;;21.00;99.90;;;;;;4974463;28;20474;-76
2022/07/12 08:15:31;;;;;;;2.53;2.30;;;21.10;99.90;;;;;;4990651;28;20443;-76
2022/07/12 08:17:57;;;;;;;6.03;2.57;;;21.20;99.90;;;;;;4990352;28;20192;-76
2022/07/12 08:20:24;;;;;;;1.87;1.77;;;21.30;99.90;;;;;;4974301;28;20497;-76
2022/07/12 08:22:49;;;;;;;7.23;2.57;;;21.50;99.90;;;;;;4989995;28;20235;-76
2022/07/12 08:25:16;;;;;;;2.23;2.13;;;21.70;99.90;;;;;;5007786;28;20467;-76
2022/07/12 08:27:41;;;;;;;2.27;2.10;;;21.80;99.90;;;;;;5007704;28;20670;-76
2022/07/12 08:30:08;;;;;;;2.20;2.10;;;21.90;99.90;;;;;;5007956;28;20488;-76
2022/07/12 08:32:33;;;;;;;2.00;1.90;;;21.90;99.90;;;;;;5007638;28;20269;-76
2022/07/12 08:34:59;;;;;;;1.80;1.70;;;21.90;99.90;;;;;;5007756;28;20428;-76
2022/07/12 08:37:25;;;;;;;1.80;1.70;;;22.10;99.90;;;;;;5007561;28;20972;-76
2022/07/12 08:39:51;;;;;;;2.03;1.90;;;22.20;99.90;;;;;;4989947;28;20200;-77
2022/07/12 08:42:18;;;;;;;2.37;1.90;;;22.20;99.90;;;;;;5007452;28;20196;-76
2022/07/12 08:44:44;;;;;;;2.17;1.93;;;22.30;99.90;;;;;;5007755;28;20977;-76
2022/07/12 08:47:10;;;;;;;2.10;2.00;;;22.50;99.90;;;;;;4991114;28;20481;-76
2022/07/12 08:49:37;;;;;;;3.10;2.37;;;22.50;99.90;;;;;;4989826;28;20485;-76
2022/07/12 08:52:26;;;;;;;1.60;1.50;;;22.80;99.90;;;;;;4990269;28;20553;-76
2022/07/12 08:54:52;;;;;;;1.90;1.80;;;23.00;99.90;;;;;;5007748;28;20476;-76
2022/07/12 08:57:39;;;;;;;1.87;1.70;;;23.20;99.90;;;;;;5007936;28;20485;-76
2022/07/12 09:00:05;;;;;;;1.63;1.37;;;23.30;99.90;;;;;;5008100;28;20510;-76
2022/07/12 09:02:50;;;;;;;1.20;1.10;;;23.40;99.90;;;;;;5008032;28;20439;-76
2022/07/12 09:05:17;;;;;;;2.13;1.37;;;23.60;99.90;;;;;;4989799;28;20424;-76
2022/07/12 09:07:43;;;;;;;2.10;1.77;;;23.70;98.90;;;;;;4989643;28;21018;-76
2022/07/12 09:10:10;;;;;;;3.53;1.60;;;24.00;99.10;;;;;;4989772;28;20449;-76
2022/07/12 09:12:37;;;;;;;1.77;1.67;;;24.30;98.10;;;;;;4989999;28;20783;-76
2022/07/12 09:15:19;;;;;;;1.20;1.10;;;24.30;96.40;;;;;;4991160;28;20540;-76
2022/07/12 09:17:59;;;;;;;1.20;1.03;;;24.00;95.70;;;;;;5011455;28;20441;-76
2022/07/12 09:20:36;;;;;;;1.17;1.07;;;24.30;95.90;;;;;;4993431;28;20791;-76
2022/07/12 09:23:06;;;;;;;1.20;1.10;;;24.60;95.30;;;;;;5010984;28;20448;-76
2022/07/12 09:25:32;;;;;;;1.57;1.10;;;25.10;94.50;;;;;;4993107;28;20442;-76
2022/07/12 09:27:59;;;;;;;1.30;1.00;;;25.40;94.10;;;;;;5010698;28;20477;-76
2022/07/12 09:30:27;;;;;;;1.10;1.00;;;25.20;93.80;;;;;;4992851;28;20455;-76
2022/07/12 09:36:07;;;;;;;1.50;1.30;;;25.60;92.00;;;;;;5010728;28;20439;-76
2022/07/12 09:38:34;;;;;;;1.40;1.10;;;26.00;91.10;;;;;;4992473;28;20525;-78
2022/07/12 09:41:00;;;;;;;1.30;1.20;;;26.30;90.10;;;;;;5010644;28;20437;-76
2022/07/12 09:43:27;;;;;;;1.00;0.97;;;26.60;88.50;;;;;;5010435;28;21045;-77
2022/07/12 09:45:53;;;;;;;1.40;1.30;;;26.70;86.80;;;;;;5010089;28;20448;-76
2022/07/12 09:48:21;;;;;;;2.57;1.83;;;27.00;86.00;;;;;;5010188;28;20502;-76
2022/07/12 09:50:52;;;;;;;2.63;1.60;;;27.10;82.90;;;;;;5010261;28;21136;-77
2022/07/12 09:53:27;;;;;;;1.67;1.33;;;27.40;82.40;;;;;;4992516;28;20427;-77
2022/07/12 09:55:53;;;;;;;5.40;1.63;;;27.60;81.60;;;;;;5009967;28;20434;-76
2022/07/12 09:58:34;;;;;;;1.57;1.47;;;27.10;82.10;;;;;;4992413;28;20428;-76
2022/07/12 10:01:01;;;;;;;2.37;1.03;;;26.60;85.20;;;;;;5011161;28;20188;-76
2022/07/12 10:03:31;;;;;;;1.93;1.23;;;26.40;85.10;;;;;;5010432;28;20420;-76
2022/07/12 10:06:00;;;;;;;2.53;1.70;;;26.30;86.00;;;;;;5010149;28;20811;-76
2022/07/12 10:08:26;;;;;;;1.90;1.70;;;26.30;87.50;;;;;;5009912;28;20416;-76
2022/07/12 10:10:51;;;;;;;1.80;1.70;;;26.30;89.20;;;;;;4992180;28;20420;-76
2022/07/12 10:13:20;;;;;;;1.27;1.17;;;26.00;87.90;;;;;;5009761;28;20940;-76
2022/07/12 10:15:47;;;;;;;5.50;1.70;;;26.30;88.60;;;;;;4991937;28;20205;-76
2022/07/12 10:18:17;;;;;;;2.63;1.60;;;26.40;88.10;;;;;;5009677;28;20428;-76
2022/07/12 10:20:44;;;;;;;1.60;1.40;;;26.00;87.80;;;;;;5009635;28;20483;-76
2022/07/12 10:23:16;;;;;;;3.53;1.17;;;25.70;89.90;;;;;;4975458;28;20454;-77
2022/07/12 10:25:42;;;;;;;1.47;1.20;;;26.30;87.50;;;;;;4991755;28;20450;-76
2022/07/12 10:28:07;;;;;;;3.20;1.50;;;26.90;89.50;;;;;;5009670;28;20471;-76
2022/07/12 10:30:45;;;;;;;1.87;1.50;;;27.30;86.90;;;;;;5009485;28;20907;-76
2022/07/12 10:33:22;;;;;;;2.87;1.20;;;27.30;83.90;;;;;;5009436;28;20189;-76
2022/07/12 10:36:06;;;;;;;2.93;1.30;;;27.10;83.50;;;;;;5009260;28;20454;-76
2022/07/12 10:38:33;;;;;;;1.80;1.40;;;26.70;85.90;;;;;;5009468;28;20461;-76
2022/07/12 10:41:20;;;;;;;2.10;1.37;;;27.00;87.60;;;;;;5010019;28;20456;-76
2022/07/12 10:44:04;;;;;;;2.80;1.57;;;27.50;83.10;;;;;;4991804;28;20463;-76
2022/07/12 10:46:30;;;;;;;2.70;1.50;;;27.80;82.10;;;;;;5009448;28;20467;-76
2022/07/12 10:49:28;;;;;;;3.20;2.00;;;28.30;79.10;;;;;;4975995;28;20445;-76
2022/07/12 10:52:09;;;;;;;1.80;1.70;;;28.60;76.60;;;;;;4992776;28;20205;-76
2022/07/12 10:54:39;;;;;;;2.03;1.90;;;28.80;76.80;;;;;;4992651;28;20802;-76
2022/07/12 10:57:05;;;;;;;1.80;1.70;;;28.90;75.70;;;;;;5009525;28;20784;-76
2022/07/12 10:59:35;;;;;;;2.00;1.90;;;28.90;75.60;;;;;;5009623;28;20447;-77
2022/07/12 11:02:01;;;;;;;2.27;1.43;;;28.90;75.20;;;;;;5009589;28;20701;-76
2022/07/12 11:04:27;;;;;;;1.90;1.80;;;28.80;73.90;;;;;;5008959;28;20416;-76
2022/07/12 11:06:56;;;;;;;2.00;1.90;;;28.80;74.60;;;;;;5008860;28;20217;-76
2022/07/12 11:09:23;;;;;;;2.90;1.40;;;29.00;73.00;;;;;;4991257;28;20428;-76
2022/07/12 11:11:50;;;;;;;3.57;1.97;;;29.20;72.40;;;;;;4992184;28;20428;-76
2022/07/12 11:14:22;;;;;;;2.93;1.93;;;29.10;71.10;;;;;;5009799;28;21000;-76
2022/07/12 11:16:49;;;;;;;5.20;1.77;;;29.10;69.10;;;;;;4991373;28;20460;-76
2022/07/12 11:19:15;;;;;;;2.17;1.70;;;28.70;71.00;;;;;;4996702;28;20515;-76
2022/07/12 11:21:45;;;;;;;1.17;1.07;;;28.10;74.50;;;;;;5012674;28;20424;-76
2022/07/12 11:24:19;;;;;;;1.40;1.30;;;28.40;76.80;;;;;;4992503;28;20440;-76
2022/07/12 11:26:45;;;;;;;1.77;1.23;;;28.70;75.20;;;;;;5009691;28;20479;-76
2022/07/12 11:29:12;;;;;;;1.70;1.60;;;28.90;73.20;;;;;;4991928;28;20518;-76
2022/07/12 11:31:37;;;;;;;1.67;1.57;;;28.90;73.80;;;;;;5008770;28;20786;-76
2022/07/12 11:34:03;;;;;;;1.93;1.83;;;28.80;74.40;;;;;;4990918;28;20420;-76
2022/07/12 11:36:30;;;;;;;1.63;1.33;;;28.80;73.80;;;;;;4990892;28;20243;-77
2022/07/12 11:38:56;;;;;;;3.37;1.43;;;28.90;74.50;;;;;;5008347;28;20300;-76
2022/07/12 11:41:23;;;;;;;2.33;0.90;;;29.20;72.90;;;;;;5008719;28;20455;-76
2022/07/12 11:43:49;;;;;;;2.60;1.30;;;29.30;71.10;;;;;;4990981;28;20808;-76
2022/07/12 11:46:15;;;;;;;2.83;1.07;;;29.20;71.00;;;;;;4991020;28;20535;-76
2022/07/12 11:48:42;;;;;;;3.23;1.20;;;29.20;71.80;;;;;;4990680;28;20996;-76
2022/07/12 11:51:13;;;;;;;1.47;1.03;;;29.40;69.20;;;;;;5008426;28;20427;-76
2022/07/12 11:53:40;;;;;;;2.13;0.90;;;29.40;67.60;;;;;;4990709;28;20419;-76
2022/07/12 11:56:07;;;;;;;3.37;1.00;;;29.30;67.60;;;;;;5008383;28;21346;-76
2022/07/12 11:58:37;;;;;;;2.20;0.80;;;29.20;67.50;;;;;;5008191;28;20906;-76
2022/07/12 12:01:03;;;;;;;1.13;1.03;;;28.60;71.30;;;;;;5007870;28;20428;-76
2022/07/12 12:03:29;;;;;;;2.40;0.80;;;29.00;71.30;;;;;;5007837;28;20478;-76
2022/07/12 12:05:56;;;;;;;1.00;0.93;;;29.00;72.70;;;;;;4989980;28;20205;-75
2022/07/12 12:08:22;;;;;;;1.10;0.90;;;29.60;70.30;;;;;;5007708;28;20224;-76
2022/07/12 12:10:55;;;;;;;1.40;1.30;;;29.60;71.20;;;;;;5008074;28;20443;-76
2022/07/12 12:13:21;;;;;;;1.33;0.80;;;29.50;69.90;;;;;;5008086;28;20465;-76
2022/07/12 12:15:52;;;;;;;1.90;1.10;;;29.60;69.40;;;;;;5007686;28;20435;-76
2022/07/12 12:18:29;;;;;;;1.40;0.90;;;29.70;68.90;;;;;;4989996;28;20443;-76
2022/07/12 12:21:00;;;;;;;4.10;0.90;;;29.70;67.20;;;;;;5007754;28;20419;-76
2022/07/12 12:23:26;;;;;;;1.00;0.80;;;29.80;66.60;;;;;;5007668;28;20537;-76
2022/07/12 12:25:52;;;;;;;1.10;0.80;;;29.90;68.60;;;;;;5008008;28;20440;-76
2022/07/12 12:28:18;;;;;;;0.90;0.67;;;29.90;67.50;;;;;;4989702;28;20476;-76
2022/07/12 12:30:55;;;;;;;3.90;0.80;;;29.90;66.30;;;;;;5008290;28;20412;-76
2022/07/12 12:33:38;;;;;;;1.67;0.90;;;29.40;67.20;;;;;;5007840;28;20180;-76
2022/07/12 12:36:17;;;;;;;1.67;0.73;;;29.60;69.20;;;;;;5007615;28;20949;-76
2022/07/12 12:38:44;;;;;;;1.23;0.80;;;29.50;67.40;;;;;;4973559;28;20464;-76
2022/07/12 12:41:10;;;;;;;0.80;0.80;;;29.70;67.20;;;;;;4974113;28;20985;-76
2022/07/12 12:43:36;;;;;;;1.60;0.70;;;29.90;65.50;;;;;;5007557;28;20423;-76
2022/07/12 12:46:02;;;;;;;1.37;0.97;;;30.00;65.40;;;;;;5007609;28;20451;-76
2022/07/12 12:48:30;;;;;;;1.10;0.90;;;30.00;65.10;;;;;;5007672;28;20446;-76
2022/07/12 12:51:09;;;;;;;1.57;0.80;;;30.00;64.20;;;;;;5010553;28;20276;-76
2022/07/12 12:53:39;;;;;;;1.23;0.70;;;29.90;63.00;;;;;;5011511;28;20451;-76
2022/07/12 12:56:08;;;;;;;5.90;0.90;;;29.70;65.30;;;;;;4993742;28;20440;-76
2022/07/12 12:58:34;;;;;;;1.03;0.60;;;28.70;64.00;;;;;;5012312;28;20436;-76